Time;durP1;ratioP1;P1;durP2;ratioP2;P2;SDS_P1;SDS_P2;PMS_P1;PMS_P2;Temp;Humidity;BMP_temperature;BMP_pressure;BME280_temperature;BME280_humidity;BME280_pressure;Samples;Min_cycle;Max_cycle;Signal;HPM_P1;HPM_P2
2022/04/23 00:01:35;;;;;;;0.77;0.77;;;;;;;;;;5098943;28;20279;-58
2022/04/23 00:04:22;;;;;;;0.87;0.87;;;;;;;;;;5091603;28;21107;-56
2022/04/23 00:07:08;;;;;;;0.73;0.73;;;;;;;;;;5087628;28;20351;-56
2022/04/23 00:09:57;;;;;;;0.70;0.70;;;;;;;;;;5082839;28;20295;-57
2022/04/23 00:12:46;;;;;;;1.00;1.00;;;;;;;;;;5084102;28;20340;-56
2022/04/23 00:15:37;;;;;;;0.90;0.90;;;;;;;;;;5092946;28;20224;-57
2022/04/23 00:18:24;;;;;;;1.00;0.90;;;;;;;;;;5090957;28;20205;-56
2022/04/23 00:21:11;;;;;;;0.70;0.70;;;;;;;;;;5087989;28;20317;-57
2022/04/23 00:23:58;;;;;;;0.80;0.80;;;;;;;;;;5099955;28;20669;-56
2022/04/23 00:26:46;;;;;;;0.60;0.60;;;;;;;;;;5089821;28;20225;-55
2022/04/23 00:29:35;;;;;;;0.90;0.90;;;;;;;;;;5092262;28;20208;-57
2022/04/23 00:32:22;;;;;;;0.57;0.57;;;;;;;;;;5099652;28;20521;-63
2022/04/23 00:35:13;;;;;;;0.80;0.80;;;;;;;;;;5103093;28;20327;-57
2022/04/23 00:38:00;;;;;;;0.80;0.80;;;;;;;;;;5095120;28;20265;-56
2022/04/23 00:40:47;;;;;;;0.90;0.90;;;;;;;;;;5095056;28;20615;-56
2022/04/23 00:43:35;;;;;;;0.80;0.80;;;;;;;;;;5099662;28;20749;-56
2022/04/23 00:46:22;;;;;;;0.80;0.80;;;;;;;;;;5117389;27;20266;-57
2022/04/23 00:49:09;;;;;;;0.60;0.60;;;;;;;;;;5110691;27;20252;-56
2022/04/23 00:51:56;;;;;;;0.60;0.60;;;;;;;;;;5118939;27;20208;-56
2022/04/23 00:54:44;;;;;;;0.70;0.70;;;;;;;;;;5108163;27;20261;-56
2022/04/23 00:57:31;;;;;;;0.80;0.80;;;;;;;;;;5124243;27;20702;-56
2022/04/23 01:00:20;;;;;;;0.60;0.60;;;;;;;;;;5113381;27;20285;-57
2022/04/23 01:03:06;;;;;;;0.83;0.83;;;;;;;;;;5123549;27;20272;-57
2022/04/23 01:05:53;;;;;;;0.70;0.70;;;;;;;;;;5110062;27;20258;-58
2022/04/23 01:08:40;;;;;;;0.80;0.80;;;;;;;;;;5114502;27;20202;-58
2022/04/23 01:11:27;;;;;;;0.93;0.80;;;;;;;;;;5114705;27;20261;-57
2022/04/23 01:14:15;;;;;;;1.17;0.87;;;;;;;;;;5120135;27;20271;-57
2022/04/23 01:17:04;;;;;;;0.70;0.70;;;;;;;;;;5119021;27;20740;-58
2022/04/23 01:19:51;;;;;;;0.43;0.43;;;;;;;;;;5114489;27;20216;-56
2022/04/23 01:22:41;;;;;;;0.70;0.70;;;;;;;;;;5117738;27;20295;-56
2022/04/23 01:25:28;;;;;;;0.70;0.70;;;;;;;;;;5119192;27;20209;-56
2022/04/23 01:28:17;;;;;;;0.90;0.90;;;;;;;;;;5111423;27;20248;-56
2022/04/23 01:31:04;;;;;;;0.90;0.90;;;;;;;;;;5125241;27;20632;-69
2022/04/23 01:33:51;;;;;;;0.80;0.80;;;;;;;;;;5121203;27;20226;-57
2022/04/23 01:36:38;;;;;;;0.70;0.70;;;;;;;;;;5121817;27;20434;-57
2022/04/23 01:39:27;;;;;;;0.70;0.70;;;;;;;;;;5104659;27;20281;-64
2022/04/23 01:42:17;;;;;;;0.83;0.83;;;;;;;;;;5116952;27;20626;-56
2022/04/23 01:45:05;;;;;;;0.70;0.70;;;;;;;;;;5114517;27;20693;-56
2022/04/23 01:47:52;;;;;;;0.70;0.70;;;;;;;;;;5110417;27;20322;-56
2022/04/23 01:50:39;;;;;;;0.70;0.70;;;;;;;;;;5113493;27;20730;-56
2022/04/23 01:53:26;;;;;;;0.70;0.70;;;;;;;;;;5118857;27;20232;-57
2022/04/23 01:56:14;;;;;;;0.77;0.77;;;;;;;;;;5114866;27;20708;-56
2022/04/23 01:59:01;;;;;;;0.87;0.87;;;;;;;;;;5113811;27;20693;-56
2022/04/23 02:01:49;;;;;;;0.60;0.60;;;;;;;;;;5114245;27;20691;-57
2022/04/23 02:04:36;;;;;;;0.60;0.60;;;;;;;;;;5111787;27;20210;-57
2022/04/23 02:07:23;;;;;;;0.60;0.60;;;;;;;;;;5115139;27;20346;-57
2022/04/23 02:10:11;;;;;;;0.70;0.70;;;;;;;;;;5114456;27;20272;-56
2022/04/23 02:13:00;;;;;;;0.70;0.70;;;;;;;;;;5115615;27;20375;-56
2022/04/23 02:15:47;;;;;;;0.50;0.50;;;;;;;;;;5105519;27;20371;-57
2022/04/23 02:18:33;;;;;;;0.70;0.70;;;;;;;;;;5117740;27;20211;-56
2022/04/23 02:21:20;;;;;;;0.60;0.60;;;;;;;;;;5111950;27;20208;-57
2022/04/23 02:24:08;;;;;;;1.50;0.80;;;;;;;;;;5115612;27;20685;-56
2022/04/23 02:26:55;;;;;;;0.90;0.90;;;;;;;;;;5120076;27;20285;-57
2022/04/23 02:29:43;;;;;;;0.57;0.40;;;;;;;;;;5120182;27;20303;-56
2022/04/23 02:32:30;;;;;;;0.60;0.60;;;;;;;;;;5108195;27;20208;-55
2022/04/23 02:35:18;;;;;;;0.70;0.70;;;;;;;;;;5113915;27;20353;-57
2022/04/23 02:38:05;;;;;;;0.60;0.60;;;;;;;;;;5114199;27;20211;-55
2022/04/23 02:40:52;;;;;;;0.50;0.50;;;;;;;;;;5118672;27;20248;-55
2022/04/23 02:43:39;;;;;;;1.93;0.93;;;;;;;;;;5115715;27;20243;-56
2022/04/23 02:46:28;;;;;;;0.57;0.57;;;;;;;;;;5121239;27;20232;-57
2022/04/23 02:49:15;;;;;;;0.50;0.50;;;;;;;;;;5110285;27;20294;-57
2022/04/23 02:52:01;;;;;;;0.60;0.60;;;;;;;;;;5108996;27;20207;-57
2022/04/23 02:54:50;;;;;;;0.67;0.67;;;;;;;;;;5119292;27;20222;-57
2022/04/23 02:57:37;;;;;;;0.70;0.70;;;;;;;;;;5115917;27;20286;-56
2022/04/23 03:00:24;;;;;;;0.80;0.80;;;;;;;;;;5102393;27;20216;-57
2022/04/23 03:03:13;;;;;;;0.67;0.67;;;;;;;;;;5112842;27;20273;-56
2022/04/23 03:06:01;;;;;;;0.80;0.80;;;;;;;;;;5112414;27;20208;-56
2022/04/23 03:08:48;;;;;;;0.80;0.80;;;;;;;;;;5116268;27;20315;-56
2022/04/23 03:11:35;;;;;;;0.80;0.80;;;;;;;;;;5118796;27;20256;-56
2022/04/23 03:14:22;;;;;;;1.23;1.23;;;;;;;;;;5109141;27;20212;-57
2022/04/23 03:17:09;;;;;;;0.80;0.80;;;;;;;;;;5119879;27;20348;-56
2022/04/23 03:19:57;;;;;;;0.80;0.80;;;;;;;;;;5116358;27;20813;-56
2022/04/23 03:22:44;;;;;;;1.07;1.07;;;;;;;;;;5118154;27;20692;-56
2022/04/23 03:25:32;;;;;;;0.90;0.90;;;;;;;;;;5120511;28;20281;-56
2022/04/23 03:28:20;;;;;;;0.77;0.77;;;;;;;;;;5105836;28;20216;-57
2022/04/23 03:31:08;;;;;;;0.83;0.83;;;;;;;;;;5117729;28;20216;-70
2022/04/23 03:33:55;;;;;;;1.60;0.70;;;;;;;;;;5106245;28;20217;-56
2022/04/23 03:36:43;;;;;;;0.80;0.80;;;;;;;;;;5119903;28;20253;-59
2022/04/23 03:39:30;;;;;;;0.90;0.90;;;;;;;;;;5115148;28;20287;-56
2022/04/23 03:42:17;;;;;;;0.90;0.90;;;;;;;;;;5115061;28;20296;-57
2022/04/23 03:45:05;;;;;;;0.67;0.67;;;;;;;;;;5111226;28;20348;-56
2022/04/23 03:47:52;;;;;;;0.90;0.90;;;;;;;;;;5111219;28;20248;-56
2022/04/23 03:50:39;;;;;;;0.80;0.80;;;;;;;;;;5115916;28;20296;-56
2022/04/23 03:53:27;;;;;;;0.67;0.67;;;;;;;;;;5121657;28;20322;-57
2022/04/23 03:56:14;;;;;;;0.60;0.60;;;;;;;;;;5122296;28;20272;-56
2022/04/23 03:59:01;;;;;;;1.37;0.73;;;;;;;;;;5107162;28;20322;-56
2022/04/23 04:01:48;;;;;;;0.67;0.67;;;;;;;;;;5107081;28;20321;-56
2022/04/23 04:04:35;;;;;;;0.83;0.83;;;;;;;;;;5121129;27;20201;-56
2022/04/23 04:07:22;;;;;;;0.70;0.70;;;;;;;;;;5123215;27;20311;-56
2022/04/23 04:10:12;;;;;;;0.77;0.77;;;;;;;;;;5115425;27;20280;-56
2022/04/23 04:12:59;;;;;;;0.67;0.67;;;;;;;;;;5112538;27;20206;-56
2022/04/23 04:15:47;;;;;;;1.00;0.90;;;;;;;;;;5117178;27;20323;-57
2022/04/23 04:18:34;;;;;;;0.70;0.70;;;;;;;;;;5117460;27;20699;-56
2022/04/23 04:21:21;;;;;;;0.70;0.70;;;;;;;;;;5120649;27;20202;-56
2022/04/23 04:24:08;;;;;;;0.60;0.60;;;;;;;;;;5111407;27;20294;-57
2022/04/23 04:26:57;;;;;;;0.60;0.60;;;;;;;;;;5120310;27;20330;-56
2022/04/23 04:29:44;;;;;;;0.80;0.80;;;;;;;;;;5120971;27;20205;-57
2022/04/23 04:32:32;;;;;;;0.70;0.70;;;;;;;;;;5111714;27;20306;-56
2022/04/23 04:35:19;;;;;;;0.80;0.80;;;;;;;;;;5123019;27;20313;-56
2022/04/23 04:38:06;;;;;;;0.50;0.50;;;;;;;;;;5117937;27;20213;-57
2022/04/23 04:40:53;;;;;;;0.60;0.60;;;;;;;;;;5107011;27;20286;-56
2022/04/23 04:43:41;;;;;;;0.70;0.70;;;;;;;;;;5121990;27;20358;-56
2022/04/23 04:46:28;;;;;;;0.73;0.60;;;;;;;;;;5108863;27;20234;-56
2022/04/23 04:49:15;;;;;;;0.80;0.80;;;;;;;;;;5125839;27;20556;-56
2022/04/23 04:52:02;;;;;;;0.67;0.67;;;;;;;;;;5124952;27;20214;-57
2022/04/23 04:54:49;;;;;;;0.70;0.70;;;;;;;;;;5117854;27;20231;-56
2022/04/23 04:57:36;;;;;;;0.43;0.43;;;;;;;;;;5117444;27;20349;-56
2022/04/23 05:00:24;;;;;;;0.70;0.70;;;;;;;;;;5112749;27;20751;-56
2022/04/23 05:03:11;;;;;;;0.50;0.50;;;;;;;;;;5120265;27;20332;-56
2022/04/23 05:05:58;;;;;;;0.50;0.50;;;;;;;;;;5120293;27;20203;-57
2022/04/23 05:08:45;;;;;;;0.70;0.70;;;;;;;;;;5120950;27;20329;-57
2022/04/23 05:11:33;;;;;;;0.60;0.60;;;;;;;;;;5098779;27;20221;-56
2022/04/23 05:14:20;;;;;;;0.60;0.60;;;;;;;;;;5115415;27;20300;-56
2022/04/23 05:17:08;;;;;;;0.53;0.53;;;;;;;;;;5121677;27;20293;-56
2022/04/23 05:19:56;;;;;;;0.83;0.57;;;;;;;;;;5119392;27;20303;-56
2022/04/23 05:22:42;;;;;;;0.30;0.30;;;;;;;;;;5124521;27;20513;-56
2022/04/23 05:25:29;;;;;;;0.30;0.30;;;;;;;;;;5113729;27;20251;-57
2022/04/23 05:28:16;;;;;;;0.40;0.40;;;;;;;;;;5117967;27;20354;-56
2022/04/23 05:31:03;;;;;;;0.60;0.60;;;;;;;;;;5113847;27;20289;-56
2022/04/23 05:33:52;;;;;;;0.60;0.60;;;;;;;;;;5114911;27;20293;-57
2022/04/23 05:36:38;;;;;;;0.40;0.40;;;;;;;;;;5121428;27;20238;-57
2022/04/23 05:39:25;;;;;;;0.60;0.60;;;;;;;;;;5078325;27;20840;-58
2022/04/23 05:42:12;;;;;;;0.50;0.50;;;;;;;;;;4889242;28;20709;-58
2022/04/23 05:44:59;;;;;;;0.40;0.40;;;;;;;;;;4939923;28;20721;-57
2022/04/23 05:47:46;;;;;;;0.30;0.30;;;;;;;;;;5049166;28;20240;-57
2022/04/23 05:50:35;;;;;;;0.30;0.30;;;;;;;;;;5052684;28;20213;-57
2022/04/23 05:53:21;;;;;;;0.30;0.30;;;;;;;;;;5058358;28;20364;-56
2022/04/23 05:56:08;;;;;;;0.50;0.50;;;;;;;;;;5049883;28;20750;-57
2022/04/23 05:58:55;;;;;;;0.53;0.30;;;;;;;;;;5048577;28;20296;-57
2022/04/23 06:01:42;;;;;;;0.40;0.40;;;;;;;;;;5048728;28;20296;-55
2022/04/23 06:04:29;;;;;;;0.50;0.30;;;;;;;;;;5048537;28;20295;-55
2022/04/23 06:07:17;;;;;;;0.40;0.40;;;;;;;;;;5048326;28;20671;-55
2022/04/23 06:10:06;;;;;;;0.38;0.38;;;;;;;;;;5051214;28;20293;-55
2022/04/23 06:12:52;;;;;;;0.30;0.30;;;;;;;;;;5050227;28;20278;-55
2022/04/23 06:15:39;;;;;;;1.85;0.30;;;;;;;;;;5048129;28;20369;-55
2022/04/23 06:18:26;;;;;;;0.90;0.50;;;;;;;;;;5049619;28;20207;-58
2022/04/23 06:21:13;;;;;;;0.40;0.40;;;;;;;;;;5049018;28;20261;-55
2022/04/23 06:24:01;;;;;;;0.63;0.32;;;;;;;;;;5047960;28;20308;-55
2022/04/23 06:26:48;;;;;;;0.35;0.35;;;;;;;;;;5052829;28;20247;-55
2022/04/23 06:29:36;;;;;;;0.30;0.30;;;;;;;;;;5049075;28;20253;-55
2022/04/23 06:32:23;;;;;;;0.30;0.30;;;;;;;;;;5048548;28;20212;-55
2022/04/23 06:35:10;;;;;;;0.40;0.40;;;;;;;;;;5048379;28;20859;-55
2022/04/23 06:37:57;;;;;;;0.30;0.30;;;;;;;;;;5049147;28;20207;-55
2022/04/23 06:40:47;;;;;;;0.20;0.20;;;;;;;;;;5049201;28;20289;-56
2022/04/23 06:43:34;;;;;;;0.57;0.40;;;;;;;;;;5050431;28;20235;-56
2022/04/23 06:46:21;;;;;;;0.50;0.50;;;;;;;;;;5050680;28;20317;-55
2022/04/23 06:49:08;;;;;;;0.30;0.30;;;;;;;;;;5048403;28;20514;-56
2022/04/23 06:51:55;;;;;;;0.25;0.20;;;;;;;;;;5052215;28;20294;-53
2022/04/23 06:54:42;;;;;;;0.20;0.20;;;;;;;;;;5050100;28;20211;-55
2022/04/23 06:57:30;;;;;;;0.20;0.20;;;;;;;;;;5049706;28;20299;-55
2022/04/23 07:00:19;;;;;;;0.17;0.17;;;;;;;;;;5047703;28;20316;-55
2022/04/23 07:03:06;;;;;;;0.20;0.20;;;;;;;;;;5055748;28;20207;-56
2022/04/23 07:05:53;;;;;;;0.20;0.20;;;;;;;;;;5050376;28;20219;-56
2022/04/23 07:08:40;;;;;;;0.20;0.20;;;;;;;;;;5051478;28;20688;-52
2022/04/23 07:11:27;;;;;;;0.30;0.30;;;;;;;;;;5046418;28;20208;-54
2022/04/23 07:14:15;;;;;;;0.20;0.20;;;;;;;;;;5045899;28;20235;-54
2022/04/23 07:17:03;;;;;;;0.32;0.32;;;;;;;;;;5057842;28;20223;-55
2022/04/23 07:19:50;;;;;;;0.10;0.10;;;;;;;;;;5047100;28;20237;-55
2022/04/23 07:22:37;;;;;;;0.20;0.20;;;;;;;;;;5049976;28;20726;-56
2022/04/23 07:25:24;;;;;;;0.30;0.30;;;;;;;;;;5048909;28;20248;-55
2022/04/23 07:28:11;;;;;;;0.20;0.20;;;;;;;;;;5049779;28;20282;-56
2022/04/23 07:31:00;;;;;;;0.20;0.17;;;;;;;;;;5047192;28;20211;-56
2022/04/23 07:39:56;;;;;;;0.25;0.22;;;;;;;;;;5053983;28;20301;-57
2022/04/23 07:42:44;;;;;;;0.10;0.10;;;;;;;;;;5054006;28;20215;-57
2022/04/23 07:45:31;;;;;;;0.17;0.17;;;;;;;;;;5060562;28;20315;-57
2022/04/23 07:48:19;;;;;;;0.25;0.25;;;;;;;;;;5052811;28;20241;-56
2022/04/23 07:51:06;;;;;;;0.13;0.13;;;;;;;;;;5052859;28;20235;-57
2022/04/23 07:53:53;;;;;;;0.20;0.20;;;;;;;;;;5051654;28;20283;-57
2022/04/23 07:56:41;;;;;;;0.20;0.20;;;;;;;;;;5051767;28;20223;-58
2022/04/23 07:59:29;;;;;;;0.13;0.13;;;;;;;;;;5055133;28;20283;-56
2022/04/23 08:02:16;;;;;;;0.47;0.20;;;;;;;;;;5051085;28;20286;-58
2022/04/23 08:05:06;;;;;;;0.20;0.20;;;;;;;;;;5054876;28;20615;-58
2022/04/23 08:07:52;;;;;;;0.20;0.20;;;;;;;;;;5050053;28;20246;-57
2022/04/23 08:10:39;;;;;;;0.10;0.10;;;;;;;;;;5050404;28;20569;-56
2022/04/23 08:13:26;;;;;;;0.38;0.30;;;;;;;;;;5051531;28;20285;-57
2022/04/23 08:16:13;;;;;;;0.13;0.13;;;;;;;;;;5051900;28;20312;-54
2022/04/23 08:19:00;;;;;;;0.20;0.20;;;;;;;;;;5052356;28;20329;-56
2022/04/23 08:21:49;;;;;;;0.10;0.10;;;;;;;;;;5050886;28;20695;-55
2022/04/23 08:24:36;;;;;;;0.10;0.10;;;;;;;;;;5048721;28;20293;-54
2022/04/23 08:27:23;;;;;;;0.20;0.20;;;;;;;;;;5053903;28;20326;-53
2022/04/23 08:33:16;;;;;;;0.13;0.13;;;;;;;;;;5052398;28;20207;-53
2022/04/23 08:36:02;;;;;;;0.10;0.10;;;;;;;;;;5049419;28;20287;-54
2022/04/23 08:38:51;;;;;;;0.17;0.17;;;;;;;;;;5046899;28;20262;-54
2022/04/23 08:41:39;;;;;;;0.10;0.10;;;;;;;;;;5050596;28;20215;-55
2022/04/23 08:44:26;;;;;;;1.58;0.20;;;;;;;;;;5044186;28;20250;-54
2022/04/23 08:47:16;;;;;;;0.10;0.10;;;;;;;;;;5050664;28;20247;-55
2022/04/23 08:50:07;;;;;;;0.32;0.32;;;;;;;;;;5047511;28;20204;-55
2022/04/23 08:52:55;;;;;;;0.10;0.10;;;;;;;;;;5046800;28;20311;-56
2022/04/23 08:55:45;;;;;;;0.30;0.30;;;;;;;;;;5048614;28;20235;-55
2022/04/23 08:58:32;;;;;;;0.20;0.20;;;;;;;;;;5033495;28;20270;-56
2022/04/23 09:01:19;;;;;;;0.20;0.20;;;;;;;;;;5046144;28;20667;-56
2022/04/23 09:04:07;;;;;;;0.10;0.10;;;;;;;;;;5041868;28;20290;-55
2022/04/23 09:06:54;;;;;;;0.52;0.20;;;;;;;;;;5045883;28;20249;-55
2022/04/23 09:09:48;;;;;;;0.17;0.17;;;;;;;;;;5044432;28;20262;-55
2022/04/23 09:12:56;;;;;;;0.20;0.20;;;;;;;;;;5046503;28;20292;-54
2022/04/23 09:24:58;;;;;;;0.30;0.30;;;;;;;;;;5046042;28;20208;-55
2022/04/23 09:27:46;;;;;;;0.30;0.30;;;;;;;;;;5047076;28;20290;-56
2022/04/23 09:30:36;;;;;;;0.20;0.20;;;;;;;;;;5048805;28;20247;-55
2022/04/23 09:33:28;;;;;;;0.20;0.20;;;;;;;;;;5047666;28;20203;-55
2022/04/23 09:36:15;;;;;;;0.10;0.10;;;;;;;;;;5049377;28;20585;-55
2022/04/23 09:39:03;;;;;;;0.35;0.20;;;;;;;;;;5049704;28;20290;-56
2022/04/23 09:41:50;;;;;;;0.75;0.20;;;;;;;;;;5050649;28;20216;-56
2022/04/23 09:44:38;;;;;;;0.20;0.10;;;;;;;;;;5049845;28;20694;-56
2022/04/23 09:47:32;;;;;;;0.13;0.13;;;;;;;;;;5044945;28;21173;-56
2022/04/23 09:50:18;;;;;;;0.30;0.20;;;;;;;;;;5040889;28;20295;-56
2022/04/23 09:53:09;;;;;;;0.25;0.22;;;;;;;;;;5046653;28;20637;-56
2022/04/23 09:55:59;;;;;;;0.52;0.30;;;;;;;;;;5046458;28;20287;-55
2022/04/23 09:58:47;;;;;;;2.05;0.40;;;;;;;;;;5044983;28;20210;-56
2022/04/23 10:01:35;;;;;;;0.30;0.30;;;;;;;;;;5047167;28;20204;-56
2022/04/23 10:04:24;;;;;;;0.68;0.47;;;;;;;;;;5049606;28;20322;-56
2022/04/23 10:07:11;;;;;;;0.52;0.32;;;;;;;;;;5052033;28;20330;-56
2022/04/23 10:10:02;;;;;;;0.63;0.60;;;;;;;;;;5051910;28;20208;-56
2022/04/23 10:12:51;;;;;;;0.73;0.63;;;;;;;;;;5047678;28;20698;-56
2022/04/23 10:15:39;;;;;;;0.40;0.40;;;;;;;;;;5047548;28;20328;-56
2022/04/23 10:18:27;;;;;;;0.90;0.30;;;;;;;;;;5048116;28;20235;-55
2022/04/23 10:21:29;;;;;;;1.08;0.43;;;;;;;;;;5047245;28;20287;-56
2022/04/23 10:24:26;;;;;;;0.70;0.52;;;;;;;;;;5049953;28;20293;-55
2022/04/23 10:27:15;;;;;;;0.50;0.50;;;;;;;;;;5050695;28;20740;-55
2022/04/23 10:30:04;;;;;;;0.30;0.30;;;;;;;;;;5048321;28;20742;-55
2022/04/23 10:32:51;;;;;;;0.43;0.20;;;;;;;;;;5049212;28;20213;-55
2022/04/23 10:35:40;;;;;;;0.45;0.45;;;;;;;;;;5049374;28;20294;-56
2022/04/23 10:38:27;;;;;;;0.40;0.40;;;;;;;;;;5044371;28;20274;-56
2022/04/23 10:41:15;;;;;;;0.55;0.38;;;;;;;;;;5054838;28;20220;-65
2022/04/23 10:44:04;;;;;;;0.38;0.38;;;;;;;;;;5050866;28;20335;-55
2022/04/23 10:46:52;;;;;;;1.23;0.30;;;;;;;;;;5049778;28;20211;-55
2022/04/23 10:49:39;;;;;;;0.28;0.28;;;;;;;;;;5049981;28;20305;-55
2022/04/23 10:52:36;;;;;;;0.28;0.28;;;;;;;;;;5052494;28;20235;-55
2022/04/23 10:55:23;;;;;;;0.30;0.30;;;;;;;;;;5046877;28;20212;-55
2022/04/23 10:58:21;;;;;;;0.95;0.45;;;;;;;;;;5051445;28;20707;-55
2022/04/23 11:01:20;;;;;;;0.30;0.30;;;;;;;;;;5049381;28;20504;-56
2022/04/23 11:04:12;;;;;;;0.30;0.30;;;;;;;;;;5053806;28;20203;-55
2022/04/23 11:13:26;;;;;;;0.52;0.38;;;;;;;;;;5049478;28;20222;-56
2022/04/23 11:16:15;;;;;;;0.30;0.30;;;;;;;;;;5047093;28;20208;-55
2022/04/23 11:19:03;;;;;;;0.20;0.20;;;;;;;;;;5049869;28;20211;-55
2022/04/23 11:21:50;;;;;;;0.50;0.50;;;;;;;;;;5049927;28;20207;-55
2022/04/23 11:24:38;;;;;;;0.65;0.55;;;;;;;;;;5049017;28;20284;-56
2022/04/23 11:27:27;;;;;;;0.22;0.22;;;;;;;;;;5049031;28;20294;-55
2022/04/23 11:30:14;;;;;;;0.40;0.30;;;;;;;;;;5051231;28;20745;-55
2022/04/23 11:33:12;;;;;;;0.25;0.25;;;;;;;;;;5049861;28;20672;-55
2022/04/23 11:36:00;;;;;;;0.20;0.20;;;;;;;;;;5048337;28;20207;-55
2022/04/23 11:38:47;;;;;;;0.50;0.30;;;;;;;;;;5049635;28;20787;-56
2022/04/23 11:41:36;;;;;;;0.28;0.28;;;;;;;;;;5048299;28;20333;-55
2022/04/23 11:44:45;;;;;;;0.20;0.20;;;;;;;;;;5048790;28;20273;-56
2022/04/23 11:47:33;;;;;;;0.20;0.20;;;;;;;;;;5030177;28;20921;-56
2022/04/23 11:50:22;;;;;;;0.20;0.20;;;;;;;;;;5033572;28;20211;-56
2022/04/23 11:53:10;;;;;;;0.30;0.30;;;;;;;;;;5031183;28;20756;-56
2022/04/23 11:55:57;;;;;;;0.30;0.30;;;;;;;;;;5032122;28;20340;-56
2022/04/23 11:58:45;;;;;;;0.30;0.30;;;;;;;;;;5029082;28;20318;-56
2022/04/23 12:01:33;;;;;;;0.40;0.40;;;;;;;;;;5027774;28;20212;-55
2022/04/23 12:04:20;;;;;;;0.20;0.20;;;;;;;;;;5033761;28;20293;-56
2022/04/23 12:07:07;;;;;;;0.30;0.30;;;;;;;;;;5031124;28;20650;-55
2022/04/23 12:09:56;;;;;;;0.32;0.32;;;;;;;;;;5028540;28;20295;-56
2022/04/23 12:12:49;;;;;;;0.40;0.40;;;;;;;;;;5032771;28;20274;-55
2022/04/23 12:15:45;;;;;;;0.20;0.20;;;;;;;;;;5030390;28;20291;-55
2022/04/23 12:18:33;;;;;;;0.40;0.40;;;;;;;;;;5030505;28;20236;-55
2022/04/23 12:21:20;;;;;;;0.77;0.40;;;;;;;;;;5028357;28;20258;-56
2022/04/23 12:24:09;;;;;;;0.35;0.20;;;;;;;;;;5029663;28;20302;-56
2022/04/23 12:27:01;;;;;;;0.40;0.40;;;;;;;;;;5032154;28;20242;-56
2022/04/23 12:42:31;;;;;;;0.50;0.50;;;;;;;;;;5040645;28;20203;-56
2022/04/23 12:45:22;;;;;;;0.30;0.30;;;;;;;;;;5038443;28;20239;-56
2022/04/23 12:48:09;;;;;;;0.55;0.52;;;;;;;;;;5051660;28;20687;-56
2022/04/23 12:51:04;;;;;;;0.30;0.30;;;;;;;;;;5048805;28;20249;-57
2022/04/23 12:53:52;;;;;;;1.17;0.35;;;;;;;;;;5050465;28;20235;-56
2022/04/23 12:56:39;;;;;;;0.20;0.20;;;;;;;;;;5050628;28;20263;-56
2022/04/23 12:59:26;;;;;;;0.40;0.40;;;;;;;;;;5054767;28;20656;-56
2022/04/23 13:02:13;;;;;;;0.40;0.40;;;;;;;;;;5050196;28;20247;-55
2022/04/23 13:05:00;;;;;;;0.30;0.30;;;;;;;;;;5050304;28;20777;-56
2022/04/23 13:10:53;;;;;;;0.32;0.32;;;;;;;;;;5054638;28;20652;-56
2022/04/23 13:13:40;;;;;;;0.40;0.40;;;;;;;;;;5054242;28;20290;-56
2022/04/23 13:16:28;;;;;;;0.25;0.25;;;;;;;;;;5049870;28;20275;-56
2022/04/23 13:19:15;;;;;;;0.45;0.45;;;;;;;;;;5051824;28;20234;-56
2022/04/23 13:22:02;;;;;;;0.40;0.40;;;;;;;;;;5051057;28;20229;-57
2022/04/23 13:24:49;;;;;;;0.57;0.57;;;;;;;;;;5052764;28;20282;-56
2022/04/23 13:27:37;;;;;;;0.40;0.35;;;;;;;;;;5054657;28;20723;-55
2022/04/23 13:30:24;;;;;;;0.30;0.30;;;;;;;;;;5050186;28;20303;-57
2022/04/23 13:33:11;;;;;;;0.47;0.47;;;;;;;;;;5054160;28;20288;-56
2022/04/23 13:35:58;;;;;;;0.40;0.40;;;;;;;;;;5050091;28;20687;-56
2022/04/23 13:38:45;;;;;;;0.40;0.40;;;;;;;;;;5052375;28;20277;-56
2022/04/23 13:41:32;;;;;;;0.30;0.30;;;;;;;;;;5057805;28;20219;-56
2022/04/23 13:44:21;;;;;;;0.22;0.22;;;;;;;;;;5050454;28;20223;-56
2022/04/23 13:47:09;;;;;;;0.40;0.40;;;;;;;;;;5054896;28;20321;-55
2022/04/23 13:49:56;;;;;;;0.43;0.37;;;;;;;;;;5050716;28;20628;-56
2022/04/23 13:52:43;;;;;;;0.50;0.50;;;;;;;;;;5049388;28;20222;-56
2022/04/23 13:55:29;;;;;;;0.32;0.32;;;;;;;;;;5057712;28;20296;-56
2022/04/23 13:58:16;;;;;;;0.30;0.30;;;;;;;;;;5049572;28;20361;-56
2022/04/23 14:01:05;;;;;;;0.30;0.30;;;;;;;;;;5051572;28;20242;-56
2022/04/23 14:10:07;;;;;;;0.50;0.50;;;;;;;;;;5053305;28;20285;-56
2022/04/23 14:12:54;;;;;;;0.40;0.33;;;;;;;;;;5049393;28;20228;-56
2022/04/23 14:15:41;;;;;;;0.30;0.30;;;;;;;;;;5056048;28;20352;-58
2022/04/23 14:18:29;;;;;;;0.43;0.40;;;;;;;;;;5047494;28;20257;-56
2022/04/23 14:21:16;;;;;;;0.60;0.60;;;;;;;;;;5051459;28;20312;-56
2022/04/23 14:24:03;;;;;;;1.63;0.40;;;;;;;;;;5052858;28;20255;-56
2022/04/23 14:26:50;;;;;;;0.30;0.30;;;;;;;;;;5053395;28;20222;-56
2022/04/23 14:29:37;;;;;;;0.30;0.30;;;;;;;;;;5050623;28;20339;-56
2022/04/23 14:32:24;;;;;;;0.50;0.50;;;;;;;;;;5050192;28;20252;-56
2022/04/23 14:35:12;;;;;;;0.40;0.40;;;;;;;;;;5048370;28;20624;-56
2022/04/23 14:37:59;;;;;;;0.70;0.40;;;;;;;;;;5051579;28;20266;-56
2022/04/23 14:40:46;;;;;;;0.87;0.50;;;;;;;;;;5051962;28;20300;-57
2022/04/23 14:43:34;;;;;;;0.40;0.40;;;;;;;;;;5051907;28;20571;-56
2022/04/23 14:46:21;;;;;;;0.40;0.40;;;;;;;;;;5051883;28;20248;-56
2022/04/23 14:49:08;;;;;;;0.47;0.47;;;;;;;;;;5048762;28;20214;-56
2022/04/23 14:55:01;;;;;;;0.60;0.60;;;;;;;;;;5050168;28;20276;-55
2022/04/23 14:57:48;;;;;;;0.40;0.40;;;;;;;;;;5047535;28;20301;-56
2022/04/23 15:00:35;;;;;;;0.33;0.30;;;;;;;;;;5050774;28;20672;-56
2022/04/23 15:03:22;;;;;;;0.50;0.50;;;;;;;;;;5048091;28;20285;-56
2022/04/23 15:06:09;;;;;;;0.47;0.40;;;;;;;;;;5052067;28;20218;-55
2022/04/23 15:08:58;;;;;;;1.80;0.40;;;;;;;;;;5047493;28;20293;-65
2022/04/23 15:11:46;;;;;;;0.50;0.50;;;;;;;;;;5051077;28;20272;-55
2022/04/23 15:14:33;;;;;;;0.60;0.60;;;;;;;;;;5050619;28;20216;-56
2022/04/23 15:17:20;;;;;;;0.30;0.30;;;;;;;;;;5051141;28;20213;-56
2022/04/23 15:20:08;;;;;;;0.63;0.50;;;;;;;;;;5052451;28;20209;-55
2022/04/23 15:22:55;;;;;;;0.60;0.60;;;;;;;;;;5050459;28;20211;-55
2022/04/23 15:25:43;;;;;;;0.40;0.40;;;;;;;;;;5049412;28;20345;-56
2022/04/23 15:28:30;;;;;;;1.47;0.70;;;;;;;;;;5051105;28;20554;-56
2022/04/23 15:31:17;;;;;;;0.50;0.50;;;;;;;;;;5047853;28;20286;-56
2022/04/23 15:34:04;;;;;;;0.50;0.50;;;;;;;;;;5053746;28;20731;-56
2022/04/23 15:36:51;;;;;;;0.50;0.50;;;;;;;;;;5049821;28;20211;-56
2022/04/23 15:39:38;;;;;;;0.40;0.40;;;;;;;;;;5047288;28;20470;-56
2022/04/23 15:42:27;;;;;;;0.40;0.40;;;;;;;;;;5048527;28;20627;-56
2022/04/23 15:45:14;;;;;;;0.50;0.50;;;;;;;;;;5048264;28;20286;-55
2022/04/23 15:48:02;;;;;;;0.53;0.53;;;;;;;;;;5054609;28;20364;-55
2022/04/23 15:50:50;;;;;;;0.40;0.40;;;;;;;;;;5050151;28;20334;-56
2022/04/23 15:53:37;;;;;;;0.43;0.43;;;;;;;;;;5046773;28;20280;-55
2022/04/23 15:56:23;;;;;;;0.60;0.60;;;;;;;;;;5047711;28;20242;-55
2022/04/23 15:59:12;;;;;;;0.47;0.47;;;;;;;;;;5048141;28;20230;-56
2022/04/23 16:01:59;;;;;;;0.50;0.50;;;;;;;;;;5053079;28;20688;-57
2022/04/23 16:04:47;;;;;;;0.80;0.80;;;;;;;;;;5052040;28;20208;-55
2022/04/23 16:07:33;;;;;;;0.50;0.50;;;;;;;;;;5053796;28;20209;-56
2022/04/23 16:10:21;;;;;;;0.50;0.50;;;;;;;;;;5055618;28;20701;-56
2022/04/23 16:13:08;;;;;;;0.50;0.50;;;;;;;;;;5051353;28;20379;-56
2022/04/23 16:15:56;;;;;;;0.40;0.40;;;;;;;;;;5053081;28;20240;-55
2022/04/23 16:18:45;;;;;;;0.40;0.40;;;;;;;;;;5048861;28;20371;-57
2022/04/23 16:21:32;;;;;;;0.77;0.77;;;;;;;;;;5058043;28;20218;-57
2022/04/23 16:24:19;;;;;;;0.50;0.50;;;;;;;;;;5053973;28;20214;-57
2022/04/23 16:27:06;;;;;;;1.60;0.60;;;;;;;;;;5050466;28;20246;-57
2022/04/23 16:29:53;;;;;;;1.07;0.77;;;;;;;;;;5053763;28;20633;-56
2022/04/23 16:32:41;;;;;;;0.50;0.50;;;;;;;;;;5055363;28;20320;-56
2022/04/23 16:35:29;;;;;;;0.50;0.50;;;;;;;;;;5051781;28;20201;-57
2022/04/23 16:47:29;;;;;;;0.70;0.70;;;;;;;;;;5055478;28;20272;-56
2022/04/23 16:50:17;;;;;;;0.70;0.70;;;;;;;;;;5049785;28;20211;-57
2022/04/23 16:53:04;;;;;;;0.63;0.63;;;;;;;;;;5050688;28;20243;-56
2022/04/23 16:55:52;;;;;;;0.90;0.90;;;;;;;;;;5052066;28;20279;-56
2022/04/23 16:58:39;;;;;;;0.67;0.67;;;;;;;;;;5058109;28;20224;-56
2022/04/23 17:01:26;;;;;;;0.70;0.70;;;;;;;;;;5050232;28;20245;-56
2022/04/23 17:04:13;;;;;;;0.53;0.53;;;;;;;;;;5050889;28;20220;-56
2022/04/23 17:07:02;;;;;;;0.60;0.60;;;;;;;;;;5050156;28;20680;-57
2022/04/23 17:09:48;;;;;;;0.80;0.80;;;;;;;;;;5054226;28;20289;-56
2022/04/23 17:12:36;;;;;;;0.63;0.63;;;;;;;;;;5053866;28;20550;-57
2022/04/23 17:15:23;;;;;;;0.60;0.60;;;;;;;;;;5050917;28;20213;-57
2022/04/23 17:18:10;;;;;;;0.67;0.67;;;;;;;;;;5059127;28;20291;-56
2022/04/23 17:20:57;;;;;;;0.53;0.53;;;;;;;;;;5049492;28;20280;-56
2022/04/23 17:23:46;;;;;;;0.77;0.77;;;;;;;;;;5050625;28;20267;-57
2022/04/23 17:26:33;;;;;;;0.40;0.40;;;;;;;;;;5057391;28;20211;-56
2022/04/23 17:29:21;;;;;;;1.13;0.70;;;;;;;;;;5053885;28;20338;-56
2022/04/23 17:32:09;;;;;;;0.60;0.60;;;;;;;;;;5048767;28;20216;-56
2022/04/23 17:34:56;;;;;;;0.70;0.70;;;;;;;;;;5051816;28;20238;-56
2022/04/23 17:37:43;;;;;;;0.60;0.60;;;;;;;;;;5050641;28;20735;-56
2022/04/23 17:40:31;;;;;;;0.70;0.70;;;;;;;;;;5049927;28;20231;-57
2022/04/23 17:43:18;;;;;;;0.70;0.70;;;;;;;;;;5051405;28;20261;-56
2022/04/23 17:46:05;;;;;;;0.80;0.80;;;;;;;;;;5043587;28;20709;-56